createdAt,value
2023-01-05T00:01:35.461Z,0.25
2023-01-05T00:04:04.241Z,0.30
2023-01-05T00:06:33.279Z,0.20
2023-01-05T00:09:01.813Z,0.22
2023-01-05T00:11:48.683Z,0.30
2023-01-05T00:14:35.716Z,0.25
2023-01-05T00:17:21.804Z,0.20
2023-01-05T00:20:07.558Z,0.20
2023-01-05T00:22:40.742Z,0.25
2023-01-05T00:25:13.062Z,0.30
2023-01-05T00:27:44.742Z,0.60
2023-01-05T00:30:15.697Z,0.30
2023-01-05T00:32:44.960Z,0.32
2023-01-05T00:35:14.930Z,0.32
2023-01-05T00:37:44.031Z,0.30
2023-01-05T00:40:14.046Z,0.30
2023-01-05T00:42:43.752Z,0.30
2023-01-05T00:45:14.795Z,0.20
2023-01-05T00:47:43.789Z,0.30
2023-01-05T00:50:15.055Z,0.20
2023-01-05T00:52:44.121Z,0.20
2023-01-05T00:55:12.541Z,0.20
2023-01-05T00:57:41.203Z,0.20
2023-01-05T01:00:17.144Z,0.20
2023-01-05T01:02:45.803Z,0.10
2023-01-05T01:05:14.658Z,0.20
2023-01-05T01:07:43.269Z,0.13
2023-01-05T01:10:12.890Z,0.10
2023-01-05T01:15:09.999Z,0.20
2023-01-05T01:17:39.847Z,0.10
2023-01-05T01:20:09.368Z,0.10
2023-01-05T01:22:37.682Z,0.10
2023-01-05T01:25:07.311Z,0.15
2023-01-05T01:27:35.695Z,0.10
2023-01-05T01:30:04.079Z,0.13
2023-01-05T01:32:32.390Z,0.10
2023-01-05T01:35:02.134Z,0.10
2023-01-05T01:37:30.557Z,0.10
2023-01-05T01:39:59.397Z,0.10
2023-01-05T01:42:28.598Z,0.15
2023-01-05T01:44:59.547Z,0.10
2023-01-05T01:47:38.823Z,0.10
2023-01-05T01:50:17.062Z,0.15
2023-01-05T01:52:49.415Z,0.10
2023-01-05T01:55:18.270Z,0.20
2023-01-05T01:57:48.180Z,0.20
2023-01-05T02:00:17.097Z,0.20
2023-01-05T02:02:54.781Z,0.20
2023-01-05T02:05:29.529Z,0.20
2023-01-05T02:07:58.021Z,0.20
2023-01-05T02:10:42.990Z,0.10
2023-01-05T02:13:27.737Z,0.20
2023-01-05T02:16:04.227Z,0.10
2023-01-05T02:18:47.369Z,0.10
2023-01-05T02:21:26.517Z,0.10
2023-01-05T02:24:26.048Z,0.20
2023-01-05T02:27:28.173Z,0.15
2023-01-05T02:30:32.399Z,0.10
2023-01-05T02:33:11.115Z,0.20
2023-01-05T02:35:46.627Z,0.10
2023-01-05T02:38:24.665Z,0.10
2023-01-05T02:40:58.635Z,0.20
2023-01-05T02:43:29.757Z,0.20
2023-01-05T02:45:58.113Z,0.20
2023-01-05T02:48:29.261Z,0.20
2023-01-05T02:51:01.590Z,0.25
2023-01-05T02:53:33.970Z,0.10
2023-01-05T02:56:07.849Z,0.32
2023-01-05T02:58:42.652Z,0.20
2023-01-05T03:01:17.760Z,0.20
2023-01-05T03:03:53.755Z,0.25
2023-01-05T03:06:27.010Z,0.20
2023-01-05T03:08:59.488Z,0.10
2023-01-05T03:11:51.753Z,0.20
2023-01-05T03:14:25.945Z,0.10
2023-01-05T03:16:57.479Z,0.10
2023-01-05T03:19:39.607Z,0.20
2023-01-05T03:22:34.326Z,0.20
2023-01-05T03:25:22.263Z,0.20
2023-01-05T03:28:09.862Z,0.20
2023-01-05T03:31:04.239Z,0.20
2023-01-05T03:33:57.021Z,0.20
2023-01-05T03:36:30.134Z,0.10
2023-01-05T03:39:02.157Z,0.10
2023-01-05T03:41:33.231Z,0.10
2023-01-05T03:44:01.674Z,0.10
2023-01-05T03:46:33.826Z,0.17
2023-01-05T03:49:02.401Z,0.10
2023-01-05T03:51:35.064Z,0.30
2023-01-05T03:54:07.845Z,0.17
2023-01-05T03:56:38.392Z,0.20
2023-01-05T03:59:07.598Z,0.20
2023-01-05T04:01:39.202Z,0.20
2023-01-05T04:04:07.565Z,0.10
2023-01-05T04:06:37.276Z,0.10
2023-01-05T04:09:06.453Z,0.20
2023-01-05T04:11:35.133Z,0.20
2023-01-05T04:14:06.826Z,0.20
2023-01-05T04:16:37.504Z,0.40
2023-01-05T04:19:19.402Z,0.30
2023-01-05T04:21:49.282Z,0.20
2023-01-05T04:24:17.547Z,0.13
2023-01-05T04:26:47.233Z,0.10
2023-01-05T04:29:15.634Z,0.10
2023-01-05T04:31:46.962Z,0.10
2023-01-05T04:34:15.296Z,0.28
2023-01-05T04:36:48.014Z,0.20
2023-01-05T04:39:20.118Z,0.20
2023-01-05T04:44:20.987Z,0.20
2023-01-05T04:46:50.786Z,0.20
2023-01-05T04:49:20.545Z,0.20
2023-01-05T04:51:51.588Z,0.10
2023-01-05T04:56:53.231Z,0.30
2023-01-05T04:59:21.728Z,0.30
2023-01-05T05:01:51.033Z,0.20
2023-01-05T05:04:19.331Z,0.28
2023-01-05T05:06:50.086Z,0.30
2023-01-05T05:09:20.139Z,0.30
2023-01-05T05:11:51.466Z,0.20
2023-01-05T05:14:23.473Z,0.30
2023-01-05T05:16:52.023Z,0.28
2023-01-05T05:19:20.290Z,0.40
2023-01-05T05:21:49.848Z,0.30
2023-01-05T05:24:18.348Z,0.20
2023-01-05T05:26:47.817Z,0.20
2023-01-05T05:29:17.589Z,0.20
2023-01-05T05:31:46.029Z,0.20
2023-01-05T05:34:14.329Z,0.22
2023-01-05T05:36:42.877Z,0.20
2023-01-05T05:39:13.228Z,0.20
2023-01-05T05:41:41.474Z,0.30
2023-01-05T05:44:10.075Z,0.30
2023-01-05T05:46:39.771Z,0.20
2023-01-05T05:49:08.795Z,0.20
2023-01-05T05:51:37.331Z,0.30
2023-01-05T05:54:06.070Z,0.30
2023-01-05T05:56:34.302Z,0.20
2023-01-05T05:59:02.582Z,0.30
2023-01-05T06:01:31.613Z,0.20
2023-01-05T06:04:01.304Z,0.20
2023-01-05T06:06:29.587Z,0.20
2023-01-05T06:08:57.827Z,0.30
2023-01-05T06:11:26.275Z,0.30
2023-01-05T06:13:54.638Z,0.30
2023-01-05T06:16:22.947Z,0.40
2023-01-05T06:18:51.339Z,0.22
2023-01-05T06:21:22.138Z,0.20
2023-01-05T06:23:50.417Z,0.20
2023-01-05T06:26:18.685Z,0.40
2023-01-05T06:28:47.017Z,0.30
2023-01-05T06:31:15.292Z,0.30
2023-01-05T06:33:43.571Z,0.50
2023-01-05T06:36:11.965Z,0.20
2023-01-05T06:38:41.585Z,0.22
2023-01-05T06:41:09.801Z,0.47
2023-01-05T06:43:38.074Z,0.30
2023-01-05T06:46:06.713Z,0.30
2023-01-05T06:48:35.125Z,0.30
2023-01-05T06:51:03.386Z,0.30
2023-01-05T06:56:14.433Z,0.30
2023-01-05T06:58:42.668Z,0.40
2023-01-05T07:01:10.993Z,1.00
2023-01-05T07:03:39.411Z,0.50
2023-01-05T07:06:14.399Z,0.52
2023-01-05T07:08:43.698Z,0.50
2023-01-05T07:11:13.855Z,0.32
2023-01-05T07:13:43.669Z,0.30
2023-01-05T07:16:12.021Z,0.30
2023-01-05T07:18:40.211Z,0.30
2023-01-05T07:21:09.361Z,0.30
2023-01-05T07:23:37.943Z,1.13
2023-01-05T07:26:06.595Z,0.93
2023-01-05T07:28:36.446Z,0.90
2023-01-05T07:31:05.054Z,0.63
2023-01-05T07:33:38.997Z,0.70
2023-01-05T07:36:08.895Z,0.30
2023-01-05T07:38:37.188Z,0.40
2023-01-05T07:41:05.580Z,0.40
2023-01-05T07:43:33.855Z,0.38
2023-01-05T07:46:04.921Z,0.50
2023-01-05T07:48:33.293Z,0.30
2023-01-05T07:51:02.610Z,0.30
2023-01-05T07:53:41.424Z,0.47
2023-01-05T07:56:13.468Z,0.40
2023-01-05T07:58:42.036Z,0.35
2023-01-05T08:01:13.925Z,0.40
2023-01-05T08:03:42.390Z,0.32
2023-01-05T08:06:13.039Z,0.40
2023-01-05T08:08:41.647Z,0.30
2023-01-05T08:11:11.480Z,0.30
2023-01-05T08:13:57.154Z,0.28
2023-01-05T08:16:27.565Z,0.38
2023-01-05T08:18:56.542Z,0.30
2023-01-05T08:21:24.806Z,0.28
2023-01-05T08:23:54.430Z,0.30
2023-01-05T08:26:24.268Z,0.40
2023-01-05T08:28:53.510Z,0.50
2023-01-05T08:31:26.149Z,0.50
2023-01-05T08:33:59.805Z,0.30
2023-01-05T08:36:28.722Z,0.40
2023-01-05T08:38:57.288Z,0.40
2023-01-05T08:41:28.100Z,0.45
2023-01-05T08:43:57.791Z,0.60
2023-01-05T08:46:28.022Z,0.50
2023-01-05T08:48:59.992Z,0.40
2023-01-05T08:51:29.191Z,0.40
2023-01-05T08:53:57.883Z,0.30
2023-01-05T08:56:27.623Z,0.25
2023-01-05T08:58:59.142Z,0.30
2023-01-05T09:01:27.719Z,0.40
2023-01-05T09:03:57.476Z,0.30
2023-01-05T09:06:25.829Z,0.38
2023-01-05T09:08:54.978Z,0.20
2023-01-05T09:11:26.468Z,0.47
2023-01-05T09:13:56.154Z,0.30
2023-01-05T09:16:57.364Z,0.25
2023-01-05T09:19:15.764Z,0.30
2023-01-05T09:21:44.644Z,0.20
2023-01-05T09:24:13.883Z,0.30
2023-01-05T09:26:42.587Z,0.30
2023-01-05T09:29:11.647Z,0.20
2023-01-05T09:31:41.356Z,0.28
2023-01-05T09:34:09.713Z,0.30
2023-01-05T09:36:40.045Z,0.20
2023-01-05T09:39:08.767Z,0.20
2023-01-05T09:41:39.376Z,0.20
2023-01-05T09:44:13.490Z,0.30
2023-01-05T09:46:46.111Z,0.40
2023-01-05T09:49:16.402Z,0.30
2023-01-05T09:51:46.156Z,0.30
2023-01-05T09:54:18.441Z,0.40
2023-01-05T09:59:39.137Z,0.40
2023-01-05T10:02:19.795Z,0.30
2023-01-05T10:04:48.932Z,0.30
2023-01-05T10:07:27.674Z,0.55
2023-01-05T10:09:58.928Z,0.30
2023-01-05T10:12:51.780Z,0.20
2023-01-05T10:15:21.786Z,0.28
2023-01-05T10:17:50.656Z,0.30
2023-01-05T10:20:21.897Z,0.50
2023-01-05T10:23:05.469Z,0.30
2023-01-05T10:25:40.781Z,0.30
2023-01-05T10:28:24.419Z,0.30
2023-01-05T10:30:59.187Z,0.30
2023-01-05T10:33:52.582Z,0.50
2023-01-05T10:39:55.918Z,0.80
2023-01-05T10:42:41.017Z,0.75
2023-01-05T10:45:12.726Z,0.55
2023-01-05T10:50:28.601Z,0.40
2023-01-05T10:52:58.077Z,0.75
2023-01-05T10:55:29.844Z,0.40
2023-01-05T10:57:58.156Z,1.00
2023-01-05T11:00:41.871Z,1.90
2023-01-05T11:03:15.066Z,1.58
2023-01-05T11:05:45.728Z,1.20
2023-01-05T11:08:19.186Z,0.70
2023-01-05T11:10:54.129Z,0.60
2023-01-05T11:13:31.606Z,0.50
2023-01-05T11:16:04.415Z,0.50
2023-01-05T11:18:36.710Z,0.50
2023-01-05T11:21:17.329Z,0.38
2023-01-05T11:23:47.728Z,0.43
2023-01-05T11:26:28.006Z,0.30
2023-01-05T11:29:00.700Z,2.17
2023-01-05T11:31:34.230Z,0.80
2023-01-05T11:34:09.701Z,0.57
2023-01-05T11:36:38.840Z,0.38
2023-01-05T11:39:07.989Z,0.63
2023-01-05T11:41:37.666Z,0.30
2023-01-05T11:44:06.949Z,0.30
2023-01-05T11:46:42.876Z,1.92
2023-01-05T11:49:11.776Z,0.40
2023-01-05T11:51:41.908Z,0.60
2023-01-05T11:54:33.683Z,0.45
2023-01-05T11:57:15.596Z,0.40
2023-01-05T11:59:45.195Z,0.30
2023-01-05T12:02:48.552Z,0.50
2023-01-05T12:05:27.052Z,0.30
2023-01-05T12:08:01.173Z,0.40
2023-01-05T12:10:48.994Z,0.38
2023-01-05T12:13:33.735Z,0.50
2023-01-05T12:16:13.129Z,0.38
2023-01-05T12:19:05.952Z,0.45
2023-01-05T12:21:39.430Z,0.40
2023-01-05T12:24:27.612Z,0.43
2023-01-05T12:27:10.608Z,0.38
2023-01-05T12:36:05.015Z,0.40
2023-01-05T12:38:48.748Z,0.30
2023-01-05T12:41:43.448Z,1.48
2023-01-05T12:44:42.563Z,1.50
2023-01-05T12:47:37.449Z,0.88
2023-01-05T12:50:22.071Z,0.68
2023-01-05T12:52:56.037Z,0.60
2023-01-05T12:55:27.934Z,0.50
2023-01-05T12:58:01.604Z,0.45
2023-01-05T13:00:36.084Z,0.50
2023-01-05T13:03:15.055Z,0.40
2023-01-05T13:05:50.136Z,0.38
2023-01-05T13:08:22.238Z,0.43
2023-01-05T13:10:54.885Z,0.32
2023-01-05T13:13:30.073Z,0.35
2023-01-05T13:16:01.518Z,0.40
2023-01-05T13:18:33.243Z,0.40
2023-01-05T13:21:04.347Z,0.50
2023-01-05T13:23:39.513Z,0.50
2023-01-05T13:26:12.460Z,0.32
2023-01-05T13:28:41.084Z,0.50
2023-01-05T13:31:36.292Z,0.50
2023-01-05T13:34:20.978Z,0.43
2023-01-05T13:37:31.201Z,0.40
2023-01-05T13:40:22.894Z,0.60
2023-01-05T13:43:15.485Z,0.90
2023-01-05T13:46:12.449Z,0.85
2023-01-05T13:49:07.545Z,0.93
2023-01-05T13:51:51.421Z,1.00
2023-01-05T13:54:26.977Z,0.90
2023-01-05T13:56:58.042Z,0.75
2023-01-05T13:59:39.892Z,1.50
2023-01-05T14:02:29.590Z,3.65
2023-01-05T14:04:58.795Z,2.13
2023-01-05T14:07:29.284Z,1.55
2023-01-05T14:09:59.008Z,1.10
2023-01-05T14:12:48.811Z,1.00
2023-01-05T14:15:42.488Z,0.80
2023-01-05T14:18:11.935Z,0.85
2023-01-05T14:20:44.872Z,1.00
2023-01-05T14:23:46.399Z,0.90
2023-01-05T14:26:16.253Z,0.82
2023-01-05T14:28:49.327Z,0.90
2023-01-05T14:31:50.760Z,0.68
2023-01-05T14:34:21.634Z,0.70
2023-01-05T14:37:07.794Z,0.70
2023-01-05T14:39:42.159Z,0.60
2023-01-05T14:42:25.983Z,0.60
2023-01-05T14:45:00.452Z,0.85
2023-01-05T14:47:37.634Z,0.63
2023-01-05T14:50:17.632Z,0.90
2023-01-05T14:52:58.169Z,1.08
2023-01-05T14:55:44.707Z,0.90
2023-01-05T14:58:16.775Z,0.68
2023-01-05T15:00:57.826Z,0.80
2023-01-05T15:03:41.136Z,0.90
2023-01-05T15:06:15.019Z,0.82
2023-01-05T15:09:21.878Z,1.00
2023-01-05T15:12:30.093Z,0.90
2023-01-05T15:15:46.028Z,0.80
2023-01-05T15:18:43.562Z,0.90
2023-01-05T15:21:43.857Z,0.70
2023-01-05T15:24:53.813Z,1.15
2023-01-05T15:27:45.163Z,0.93
2023-01-05T15:30:45.007Z,0.70
2023-01-05T15:33:17.716Z,0.98
2023-01-05T15:35:52.185Z,0.77
2023-01-05T15:38:26.200Z,0.70
2023-01-05T15:41:06.050Z,0.98
2023-01-05T15:43:35.329Z,0.82
2023-01-05T15:46:03.987Z,0.60
2023-01-05T15:48:36.276Z,0.50
2023-01-05T15:51:07.666Z,0.80
2023-01-05T15:53:38.310Z,0.70
2023-01-05T15:56:08.886Z,0.80
2023-01-05T15:58:45.680Z,0.80
2023-01-05T16:01:16.147Z,0.85
2023-01-05T16:03:45.750Z,0.80
2023-01-05T16:06:20.688Z,1.30
2023-01-05T16:08:51.127Z,0.70
2023-01-05T16:11:25.109Z,0.93
2023-01-05T16:13:57.605Z,0.90
2023-01-05T16:19:26.904Z,1.10
2023-01-05T16:21:59.702Z,0.90
2023-01-05T16:24:34.885Z,1.10
2023-01-05T16:27:05.294Z,0.73
2023-01-05T16:29:37.931Z,0.70
2023-01-05T16:32:26.859Z,0.80
2023-01-05T16:35:22.665Z,1.30
2023-01-05T16:38:16.122Z,1.20
2023-01-05T16:41:02.408Z,1.17
2023-01-05T16:43:34.496Z,1.02
2023-01-05T16:46:28.756Z,1.23
2023-01-05T16:49:00.048Z,1.38
2023-01-05T16:51:40.114Z,1.10
2023-01-05T16:54:16.926Z,1.30
2023-01-05T16:56:57.882Z,1.55
2023-01-05T16:59:51.491Z,1.40
2023-01-05T17:02:32.124Z,1.40
2023-01-05T17:05:00.338Z,1.10
2023-01-05T17:07:28.718Z,1.38
2023-01-05T17:09:58.532Z,1.40
2023-01-05T17:12:26.903Z,1.50
2023-01-05T17:15:03.767Z,1.58
2023-01-05T17:17:32.166Z,1.95
2023-01-05T17:20:00.404Z,2.15
2023-01-05T17:22:28.995Z,1.90
2023-01-05T17:27:31.789Z,2.83
2023-01-05T17:29:59.962Z,2.67
2023-01-05T17:32:28.374Z,2.17
2023-01-05T17:34:56.695Z,2.65
2023-01-05T17:37:24.998Z,2.30
2023-01-05T17:39:53.243Z,2.72
2023-01-05T17:42:40.326Z,3.63
2023-01-05T17:45:09.925Z,2.30
2023-01-05T17:47:38.190Z,3.00
2023-01-05T17:50:07.488Z,2.67
2023-01-05T17:52:35.696Z,3.00
2023-01-05T17:55:04.075Z,2.50
2023-01-05T17:57:33.764Z,2.80
2023-01-05T18:00:02.107Z,2.47
2023-01-05T18:02:33.283Z,2.72
2023-01-05T18:05:01.667Z,2.88
2023-01-05T18:07:31.534Z,2.70
2023-01-05T18:10:00.324Z,2.63
2023-01-05T18:12:29.312Z,3.58
2023-01-05T18:14:58.965Z,3.97
2023-01-05T18:17:27.379Z,2.88
2023-01-05T18:19:55.626Z,3.28
2023-01-05T18:22:23.887Z,2.83
2023-01-05T18:24:52.126Z,3.00
2023-01-05T18:27:20.600Z,2.80
2023-01-05T18:29:48.897Z,2.78
2023-01-05T18:32:18.968Z,2.72
2023-01-05T18:34:47.259Z,3.05
2023-01-05T18:37:22.442Z,2.78
2023-01-05T18:39:50.942Z,2.30
2023-01-05T18:42:19.349Z,2.92
2023-01-05T18:44:47.552Z,2.92
2023-01-05T18:47:15.807Z,4.85
2023-01-05T18:49:45.509Z,3.10
2023-01-05T18:52:13.985Z,3.22
2023-01-05T18:54:42.710Z,2.92
2023-01-05T18:57:10.929Z,3.17
2023-01-05T18:59:39.461Z,3.15
2023-01-05T19:02:08.046Z,2.90
2023-01-05T19:04:36.325Z,3.03
2023-01-05T19:07:05.979Z,3.00
2023-01-05T19:09:34.403Z,3.53
2023-01-05T19:12:02.841Z,2.65
2023-01-05T19:14:32.066Z,2.70
2023-01-05T19:17:00.642Z,2.50
2023-01-05T19:19:29.109Z,2.63
2023-01-05T19:21:57.820Z,2.80
2023-01-05T19:24:28.793Z,2.42
2023-01-05T19:26:57.101Z,2.58
2023-01-05T19:29:25.654Z,3.00
2023-01-05T19:31:53.974Z,2.50
2023-01-05T19:34:22.762Z,2.50
2023-01-05T19:36:51.046Z,1.80
2023-01-05T19:39:21.399Z,1.90
2023-01-05T19:41:52.387Z,2.08
2023-01-05T19:44:22.527Z,2.10
2023-01-05T19:46:52.264Z,2.10
2023-01-05T19:49:26.170Z,1.40
2023-01-05T19:51:54.694Z,1.98
2023-01-05T19:54:25.249Z,1.40
2023-01-05T19:56:55.171Z,1.50
2023-01-05T19:59:26.624Z,1.48
2023-01-05T20:01:56.374Z,1.50
2023-01-05T20:04:24.751Z,1.70
2023-01-05T20:06:53.017Z,1.38
2023-01-05T20:09:22.155Z,1.35
2023-01-05T20:11:54.790Z,1.10
2023-01-05T20:14:31.803Z,1.40
2023-01-05T20:17:02.481Z,1.10
2023-01-05T20:19:32.401Z,1.00
2023-01-05T20:22:01.939Z,1.30
2023-01-05T20:24:31.820Z,2.10
2023-01-05T20:27:04.656Z,1.40
2023-01-05T20:29:35.086Z,1.40
2023-01-05T20:32:06.495Z,1.50
2023-01-05T20:34:37.201Z,1.60
2023-01-05T20:37:07.740Z,1.20
2023-01-05T20:39:37.233Z,1.20
2023-01-05T20:42:06.086Z,1.10
2023-01-05T20:44:37.292Z,1.25
2023-01-05T20:47:06.840Z,1.27
2023-01-05T20:49:35.612Z,1.35
2023-01-05T20:52:04.132Z,1.10
2023-01-05T20:54:33.116Z,1.40
2023-01-05T20:57:01.642Z,1.00
2023-01-05T20:59:32.121Z,2.13
2023-01-05T21:02:05.618Z,1.80
2023-01-05T21:04:36.026Z,1.50
2023-01-05T21:07:04.356Z,1.40
2023-01-05T21:09:33.741Z,1.20
2023-01-05T21:12:01.945Z,1.42
2023-01-05T21:14:30.877Z,1.10
2023-01-05T21:16:59.072Z,1.15
2023-01-05T21:19:28.744Z,1.50
2023-01-05T21:21:58.344Z,1.20
2023-01-05T21:24:27.409Z,1.20
2023-01-05T21:26:56.281Z,0.80
2023-01-05T21:29:26.209Z,1.17
2023-01-05T21:31:56.184Z,1.08
2023-01-05T21:34:24.743Z,1.00
2023-01-05T21:36:54.361Z,0.80
2023-01-05T21:39:28.397Z,0.90
2023-01-05T21:42:14.261Z,0.80
2023-01-05T21:44:42.505Z,0.88
2023-01-05T21:47:11.325Z,0.70
2023-01-05T21:49:39.779Z,1.23
2023-01-05T21:52:28.419Z,0.93
2023-01-05T21:55:14.227Z,0.90
2023-01-05T21:57:42.449Z,0.90
2023-01-05T22:00:12.098Z,1.10
2023-01-05T22:02:40.416Z,1.10
2023-01-05T22:05:09.432Z,1.10
2023-01-05T22:07:39.055Z,1.13
2023-01-05T22:10:08.263Z,1.10
2023-01-05T22:12:36.522Z,1.00
2023-01-05T22:15:05.334Z,1.10
2023-01-05T22:17:34.539Z,1.25
2023-01-05T22:20:02.853Z,1.10
2023-01-05T22:22:31.225Z,1.00
2023-01-05T22:25:01.238Z,1.00
2023-01-05T22:27:30.709Z,1.20
2023-01-05T22:29:58.944Z,0.95
2023-01-05T22:32:27.242Z,0.80
2023-01-05T22:34:55.426Z,0.70
2023-01-05T22:37:23.755Z,1.20
2023-01-05T22:39:51.947Z,1.30
2023-01-05T22:42:21.563Z,1.10
2023-01-05T22:44:49.777Z,1.00
2023-01-05T22:47:18.089Z,1.08
2023-01-05T22:49:46.368Z,1.08
2023-01-05T22:52:14.530Z,1.10
2023-01-05T22:54:42.747Z,1.20
2023-01-05T22:57:10.944Z,1.15
2023-01-05T22:59:40.524Z,1.42
2023-01-05T23:02:08.919Z,1.30
2023-01-05T23:04:37.268Z,1.17
2023-01-05T23:07:05.636Z,1.08
2023-01-05T23:09:34.044Z,1.10
2023-01-05T23:12:02.218Z,0.90
2023-01-05T23:14:30.546Z,1.40
2023-01-05T23:17:00.195Z,1.20
2023-01-05T23:19:28.551Z,1.30
2023-01-05T23:21:56.953Z,1.73
2023-01-05T23:24:25.425Z,1.83
2023-01-05T23:26:53.770Z,1.88
2023-01-05T23:29:22.060Z,1.80
2023-01-05T23:31:50.277Z,1.70
2023-01-05T23:34:20.227Z,1.90
2023-01-05T23:36:48.495Z,2.10
2023-01-05T23:39:16.702Z,1.67
2023-01-05T23:41:44.993Z,1.95
2023-01-05T23:44:14.510Z,2.03
2023-01-05T23:46:42.857Z,1.77
2023-01-05T23:49:11.111Z,1.40
2023-01-05T23:51:40.775Z,1.73
2023-01-05T23:54:10.796Z,1.63
2023-01-05T23:56:39.233Z,1.30
2023-01-05T23:59:08.846Z,1.30
